sensor_id;sensor_type;location;lat;lon;timestamp;temperature;humidity
27779;DHT22;30234;48.090;11.464;2023-05-10T00:00:24;13.00;99.90
27779;DHT22;30234;48.090;11.464;2023-05-10T00:04:25;12.90;99.90
27779;DHT22;30234;48.090;11.464;2023-05-10T00:08:27;13.00;99.90
27779;DHT22;30234;48.090;11.464;2023-05-10T00:12:28;13.00;99.90
27779;DHT22;30234;48.090;11.464;2023-05-10T00:16:29;12.90;99.90
27779;DHT22;30234;48.090;11.464;2023-05-10T00:20:30;13.00;99.90
27779;DHT22;30234;48.090;11.464;2023-05-10T00:24:31;13.00;99.90
27779;DHT22;30234;48.090;11.464;2023-05-10T00:28:32;13.00;99.90
27779;DHT22;30234;48.090;11.464;2023-05-10T00:32:32;13.00;99.90
27779;DHT22;30234;48.090;11.464;2023-05-10T00:36:33;13.00;99.90
27779;DHT22;30234;48.090;11.464;2023-05-10T00:40:36;13.00;99.90
27779;DHT22;30234;48.090;11.464;2023-05-10T00:44:37;12.90;99.90
27779;DHT22;30234;48.090;11.464;2023-05-10T00:48:38;12.90;99.90
27779;DHT22;30234;48.090;11.464;2023-05-10T00:52:39;12.90;99.90
27779;DHT22;30234;48.090;11.464;2023-05-10T00:56:40;12.80;99.90
27779;DHT22;30234;48.090;11.464;2023-05-10T01:00:42;12.80;99.90
27779;DHT22;30234;48.090;11.464;2023-05-10T01:04:43;12.80;99.90
27779;DHT22;30234;48.090;11.464;2023-05-10T01:08:44;12.80;99.90
27779;DHT22;30234;48.090;11.464;2023-05-10T01:12:46;12.80;99.90
27779;DHT22;30234;48.090;11.464;2023-05-10T01:16:49;12.80;99.90
27779;DHT22;30234;48.090;11.464;2023-05-10T01:21:38;12.70;99.90
27779;DHT22;30234;48.090;11.464;2023-05-10T01:30:44;12.70;99.90
27779;DHT22;30234;48.090;11.464;2023-05-10T01:35:07;12.70;99.90
27779;DHT22;30234;48.090;11.464;2023-05-10T01:39:20;12.70;99.90
27779;DHT22;30234;48.090;11.464;2023-05-10T01:43:57;12.70;99.90
27779;DHT22;30234;48.090;11.464;2023-05-10T01:48:06;12.70;99.90
27779;DHT22;30234;48.090;11.464;2023-05-10T01:52:14;12.70;99.90
27779;DHT22;30234;48.090;11.464;2023-05-10T01:56:24;12.60;99.90
27779;DHT22;30234;48.090;11.464;2023-05-10T02:00:27;12.70;99.90
27779;DHT22;30234;48.090;11.464;2023-05-10T02:04:29;12.70;99.90
27779;DHT22;30234;48.090;11.464;2023-05-10T02:08:30;12.70;99.90
27779;DHT22;30234;48.090;11.464;2023-05-10T02:12:43;12.70;99.90
27779;DHT22;30234;48.090;11.464;2023-05-10T02:16:45;12.70;99.90
27779;DHT22;30234;48.090;11.464;2023-05-10T02:20:47;12.70;99.90
27779;DHT22;30234;48.090;11.464;2023-05-10T02:24:49;12.80;99.90
27779;DHT22;30234;48.090;11.464;2023-05-10T02:28:50;12.70;99.90
27779;DHT22;30234;48.090;11.464;2023-05-10T02:32:52;12.70;99.90
27779;DHT22;30234;48.090;11.464;2023-05-10T02:36:54;12.70;99.90
27779;DHT22;30234;48.090;11.464;2023-05-10T02:40:56;12.70;99.90
27779;DHT22;30234;48.090;11.464;2023-05-10T02:45:00;12.70;99.90
27779;DHT22;30234;48.090;11.464;2023-05-10T02:49:02;12.70;99.90
27779;DHT22;30234;48.090;11.464;2023-05-10T02:53:09;12.70;99.90
27779;DHT22;30234;48.090;11.464;2023-05-10T02:57:16;12.70;99.90
27779;DHT22;30234;48.090;11.464;2023-05-10T03:01:19;12.70;99.90
27779;DHT22;30234;48.090;11.464;2023-05-10T03:05:20;12.60;99.90
27779;DHT22;30234;48.090;11.464;2023-05-10T03:09:21;12.70;99.90
27779;DHT22;30234;48.090;11.464;2023-05-10T03:13:39;12.70;99.90
27779;DHT22;30234;48.090;11.464;2023-05-10T03:17:55;12.70;99.90
27779;DHT22;30234;48.090;11.464;2023-05-10T03:22:02;12.60;99.90
27779;DHT22;30234;48.090;11.464;2023-05-10T03:26:06;12.60;99.90
27779;DHT22;30234;48.090;11.464;2023-05-10T03:30:09;12.60;99.90
27779;DHT22;30234;48.090;11.464;2023-05-10T03:34:11;12.60;99.90
27779;DHT22;30234;48.090;11.464;2023-05-10T03:38:12;12.60;99.90
27779;DHT22;30234;48.090;11.464;2023-05-10T03:42:13;12.60;99.90
27779;DHT22;30234;48.090;11.464;2023-05-10T03:46:14;12.60;99.90
27779;DHT22;30234;48.090;11.464;2023-05-10T03:50:15;12.60;99.90
27779;DHT22;30234;48.090;11.464;2023-05-10T03:54:16;12.60;99.90
27779;DHT22;30234;48.090;11.464;2023-05-10T03:58:17;12.70;99.90
27779;DHT22;30234;48.090;11.464;2023-05-10T04:02:18;12.70;99.90
27779;DHT22;30234;48.090;11.464;2023-05-10T04:06:19;12.70;99.90
27779;DHT22;30234;48.090;11.464;2023-05-10T04:10:20;12.70;99.90
27779;DHT22;30234;48.090;11.464;2023-05-10T04:14:21;12.60;99.90
27779;DHT22;30234;48.090;11.464;2023-05-10T04:18:22;12.70;99.90
27779;DHT22;30234;48.090;11.464;2023-05-10T04:22:23;12.70;99.90
27779;DHT22;30234;48.090;11.464;2023-05-10T04:26:24;12.70;99.90
27779;DHT22;30234;48.090;11.464;2023-05-10T04:30:25;12.70;99.90
27779;DHT22;30234;48.090;11.464;2023-05-10T04:34:28;12.80;99.90
27779;DHT22;30234;48.090;11.464;2023-05-10T04:38:29;12.70;99.90
27779;DHT22;30234;48.090;11.464;2023-05-10T04:42:30;12.70;99.90
27779;DHT22;30234;48.090;11.464;2023-05-10T04:46:31;12.60;99.90
27779;DHT22;30234;48.090;11.464;2023-05-10T04:50:32;12.60;99.90
27779;DHT22;30234;48.090;11.464;2023-05-10T04:54:33;12.50;99.90
27779;DHT22;30234;48.090;11.464;2023-05-10T04:58:35;12.40;99.90
27779;DHT22;30234;48.090;11.464;2023-05-10T05:02:36;12.30;99.90
27779;DHT22;30234;48.090;11.464;2023-05-10T05:06:36;12.30;99.90
27779;DHT22;30234;48.090;11.464;2023-05-10T05:10:37;12.30;99.90
27779;DHT22;30234;48.090;11.464;2023-05-10T05:14:38;12.30;99.90
27779;DHT22;30234;48.090;11.464;2023-05-10T05:19:18;12.30;99.90
27779;DHT22;30234;48.090;11.464;2023-05-10T05:23:19;12.30;99.90
27779;DHT22;30234;48.090;11.464;2023-05-10T05:27:21;12.30;99.90
27779;DHT22;30234;48.090;11.464;2023-05-10T05:31:24;12.40;99.90
27779;DHT22;30234;48.090;11.464;2023-05-10T05:35:25;12.20;99.90
27779;DHT22;30234;48.090;11.464;2023-05-10T05:39:26;12.00;99.90
27779;DHT22;30234;48.090;11.464;2023-05-10T05:43:27;11.60;99.90
27779;DHT22;30234;48.090;11.464;2023-05-10T05:47:28;11.40;99.90
27779;DHT22;30234;48.090;11.464;2023-05-10T05:51:29;11.30;99.90
27779;DHT22;30234;48.090;11.464;2023-05-10T05:55:31;11.50;99.90
27779;DHT22;30234;48.090;11.464;2023-05-10T05:59:32;11.60;99.90
27779;DHT22;30234;48.090;11.464;2023-05-10T06:03:33;11.80;99.90
27779;DHT22;30234;48.090;11.464;2023-05-10T06:07:34;11.80;99.90
27779;DHT22;30234;48.090;11.464;2023-05-10T06:11:35;11.90;99.90
27779;DHT22;30234;48.090;11.464;2023-05-10T06:15:36;12.00;99.90
27779;DHT22;30234;48.090;11.464;2023-05-10T06:19:37;12.00;99.90
27779;DHT22;30234;48.090;11.464;2023-05-10T06:23:42;12.00;99.90
27779;DHT22;30234;48.090;11.464;2023-05-10T06:27:43;12.00;99.90
27779;DHT22;30234;48.090;11.464;2023-05-10T06:31:44;12.20;99.90
27779;DHT22;30234;48.090;11.464;2023-05-10T06:35:45;12.60;99.90
27779;DHT22;30234;48.090;11.464;2023-05-10T06:39:46;13.10;99.90
27779;DHT22;30234;48.090;11.464;2023-05-10T06:43:47;13.80;99.90
27779;DHT22;30234;48.090;11.464;2023-05-10T06:47:48;14.70;99.90
27779;DHT22;30234;48.090;11.464;2023-05-10T06:51:49;15.80;99.90
27779;DHT22;30234;48.090;11.464;2023-05-10T06:55:50;16.60;99.90
27779;DHT22;30234;48.090;11.464;2023-05-10T06:59:51;16.20;99.90
27779;DHT22;30234;48.090;11.464;2023-05-10T07:03:52;15.90;99.90
27779;DHT22;30234;48.090;11.464;2023-05-10T07:07:53;16.00;99.90
27779;DHT22;30234;48.090;11.464;2023-05-10T07:11:54;16.00;99.90
27779;DHT22;30234;48.090;11.464;2023-05-10T07:15:55;15.90;99.90
27779;DHT22;30234;48.090;11.464;2023-05-10T07:19:56;15.60;99.90
27779;DHT22;30234;48.090;11.464;2023-05-10T07:23:57;15.60;99.90
27779;DHT22;30234;48.090;11.464;2023-05-10T07:27:58;16.10;99.90
27779;DHT22;30234;48.090;11.464;2023-05-10T07:31:59;16.70;99.90
27779;DHT22;30234;48.090;11.464;2023-05-10T07:36:00;17.60;99.90
27779;DHT22;30234;48.090;11.464;2023-05-10T07:40:01;18.10;99.90
27779;DHT22;30234;48.090;11.464;2023-05-10T07:44:04;17.80;99.90
27779;DHT22;30234;48.090;11.464;2023-05-10T07:48:06;17.90;99.90
27779;DHT22;30234;48.090;11.464;2023-05-10T07:52:07;18.30;99.90
27779;DHT22;30234;48.090;11.464;2023-05-10T07:56:25;18.60;99.90
27779;DHT22;30234;48.090;11.464;2023-05-10T08:00:32;17.70;99.90
27779;DHT22;30234;48.090;11.464;2023-05-10T08:04:33;17.40;99.90
27779;DHT22;30234;48.090;11.464;2023-05-10T08:08:34;17.00;99.90
27779;DHT22;30234;48.090;11.464;2023-05-10T08:12:35;16.90;99.90
27779;DHT22;30234;48.090;11.464;2023-05-10T08:16:36;17.40;99.90
27779;DHT22;30234;48.090;11.464;2023-05-10T08:20:36;18.10;99.90
27779;DHT22;30234;48.090;11.464;2023-05-10T08:24:37;19.20;99.90
27779;DHT22;30234;48.090;11.464;2023-05-10T08:28:39;20.10;99.90
27779;DHT22;30234;48.090;11.464;2023-05-10T08:32:40;20.40;99.90
27779;DHT22;30234;48.090;11.464;2023-05-10T08:36:41;21.40;99.90
27779;DHT22;30234;48.090;11.464;2023-05-10T08:40:43;21.50;99.90
27779;DHT22;30234;48.090;11.464;2023-05-10T08:44:46;20.20;99.90
27779;DHT22;30234;48.090;11.464;2023-05-10T08:48:50;19.80;99.90
27779;DHT22;30234;48.090;11.464;2023-05-10T08:52:55;18.40;99.90
27779;DHT22;30234;48.090;11.464;2023-05-10T08:56:58;17.20;99.90
27779;DHT22;30234;48.090;11.464;2023-05-10T09:01:00;17.60;99.90
27779;DHT22;30234;48.090;11.464;2023-05-10T09:05:02;19.70;99.90
27779;DHT22;30234;48.090;11.464;2023-05-10T09:09:05;19.00;99.90
27779;DHT22;30234;48.090;11.464;2023-05-10T09:13:07;17.70;99.90
27779;DHT22;30234;48.090;11.464;2023-05-10T09:17:10;16.70;99.90
27779;DHT22;30234;48.090;11.464;2023-05-10T09:21:11;15.90;99.90
27779;DHT22;30234;48.090;11.464;2023-05-10T09:25:14;15.90;99.90
27779;DHT22;30234;48.090;11.464;2023-05-10T09:29:16;16.80;99.90
27779;DHT22;30234;48.090;11.464;2023-05-10T09:33:18;19.00;99.90
27779;DHT22;30234;48.090;11.464;2023-05-10T09:37:29;19.80;99.90
27779;DHT22;30234;48.090;11.464;2023-05-10T09:41:30;19.70;99.90
27779;DHT22;30234;48.090;11.464;2023-05-10T09:45:33;18.60;99.90
27779;DHT22;30234;48.090;11.464;2023-05-10T09:49:34;18.00;99.90
27779;DHT22;30234;48.090;11.464;2023-05-10T09:53:36;18.20;99.90
27779;DHT22;30234;48.090;11.464;2023-05-10T09:57:37;18.80;99.90
27779;DHT22;30234;48.090;11.464;2023-05-10T10:01:38;19.20;99.90
27779;DHT22;30234;48.090;11.464;2023-05-10T10:05:40;19.00;99.90
27779;DHT22;30234;48.090;11.464;2023-05-10T10:09:44;18.80;99.90
27779;DHT22;30234;48.090;11.464;2023-05-10T10:13:46;19.20;99.90
27779;DHT22;30234;48.090;11.464;2023-05-10T10:17:48;19.80;99.90
27779;DHT22;30234;48.090;11.464;2023-05-10T10:21:50;19.60;99.90
27779;DHT22;30234;48.090;11.464;2023-05-10T10:25:52;20.80;99.90
27779;DHT22;30234;48.090;11.464;2023-05-10T10:30:03;22.60;99.90
27779;DHT22;30234;48.090;11.464;2023-05-10T10:34:25;22.80;99.40
27779;DHT22;30234;48.090;11.464;2023-05-10T10:38:37;21.50;99.00
27779;DHT22;30234;48.090;11.464;2023-05-10T10:43:22;19.90;99.90
27779;DHT22;30234;48.090;11.464;2023-05-10T10:47:28;18.80;99.90
27779;DHT22;30234;48.090;11.464;2023-05-10T10:51:39;18.30;99.90
27779;DHT22;30234;48.090;11.464;2023-05-10T10:55:47;17.40;99.90
27779;DHT22;30234;48.090;11.464;2023-05-10T10:59:49;16.60;99.90
27779;DHT22;30234;48.090;11.464;2023-05-10T11:08:17;15.90;99.90
27779;DHT22;30234;48.090;11.464;2023-05-10T11:12:19;16.40;99.90
27779;DHT22;30234;48.090;11.464;2023-05-10T11:16:22;17.00;99.90
27779;DHT22;30234;48.090;11.464;2023-05-10T11:20:27;17.10;99.90
27779;DHT22;30234;48.090;11.464;2023-05-10T11:24:33;16.60;99.90
27779;DHT22;30234;48.090;11.464;2023-05-10T11:32:44;15.50;99.90
27779;DHT22;30234;48.090;11.464;2023-05-10T11:36:51;14.10;99.90
27779;DHT22;30234;48.090;11.464;2023-05-10T11:40:54;13.00;99.90
27779;DHT22;30234;48.090;11.464;2023-05-10T11:44:55;12.50;99.90
27779;DHT22;30234;48.090;11.464;2023-05-10T11:49:00;12.30;99.90
27779;DHT22;30234;48.090;11.464;2023-05-10T11:53:04;12.20;99.90
27779;DHT22;30234;48.090;11.464;2023-05-10T11:57:05;12.10;99.90
27779;DHT22;30234;48.090;11.464;2023-05-10T12:01:08;12.10;99.90
27779;DHT22;30234;48.090;11.464;2023-05-10T12:05:10;12.10;99.90
27779;DHT22;30234;48.090;11.464;2023-05-10T12:09:11;12.20;99.90
27779;DHT22;30234;48.090;11.464;2023-05-10T12:13:13;12.30;99.90
27779;DHT22;30234;48.090;11.464;2023-05-10T12:17:16;12.60;99.90
27779;DHT22;30234;48.090;11.464;2023-05-10T12:21:19;12.70;99.90
27779;DHT22;30234;48.090;11.464;2023-05-10T12:25:23;12.80;99.90
27779;DHT22;30234;48.090;11.464;2023-05-10T12:29:24;12.90;99.90
27779;DHT22;30234;48.090;11.464;2023-05-10T12:33:25;13.00;99.90
27779;DHT22;30234;48.090;11.464;2023-05-10T12:37:28;13.20;99.90
27779;DHT22;30234;48.090;11.464;2023-05-10T12:41:28;13.40;99.90
27779;DHT22;30234;48.090;11.464;2023-05-10T12:45:29;13.60;99.90
27779;DHT22;30234;48.090;11.464;2023-05-10T12:49:30;13.80;99.90
27779;DHT22;30234;48.090;11.464;2023-05-10T12:53:31;13.80;99.90
27779;DHT22;30234;48.090;11.464;2023-05-10T12:57:32;13.70;99.90
27779;DHT22;30234;48.090;11.464;2023-05-10T13:01:33;13.70;99.90
27779;DHT22;30234;48.090;11.464;2023-05-10T13:05:34;13.60;99.90
27779;DHT22;30234;48.090;11.464;2023-05-10T13:09:35;13.60;99.90
27779;DHT22;30234;48.090;11.464;2023-05-10T13:13:36;13.50;99.90
27779;DHT22;30234;48.090;11.464;2023-05-10T13:17:37;13.50;99.90
27779;DHT22;30234;48.090;11.464;2023-05-10T13:21:39;13.50;99.90
27779;DHT22;30234;48.090;11.464;2023-05-10T13:25:47;13.40;99.90
27779;DHT22;30234;48.090;11.464;2023-05-10T13:29:48;13.20;99.90
27779;DHT22;30234;48.090;11.464;2023-05-10T13:33:50;13.20;99.90
27779;DHT22;30234;48.090;11.464;2023-05-10T13:37:51;13.30;99.90
27779;DHT22;30234;48.090;11.464;2023-05-10T13:41:53;13.40;99.90
27779;DHT22;30234;48.090;11.464;2023-05-10T13:45:54;13.40;99.90
27779;DHT22;30234;48.090;11.464;2023-05-10T13:49:55;13.40;99.90
27779;DHT22;30234;48.090;11.464;2023-05-10T13:53:58;13.50;99.90
27779;DHT22;30234;48.090;11.464;2023-05-10T13:57:59;13.60;99.90
27779;DHT22;30234;48.090;11.464;2023-05-10T14:02:00;13.60;99.90
27779;DHT22;30234;48.090;11.464;2023-05-10T14:06:03;13.80;99.90
27779;DHT22;30234;48.090;11.464;2023-05-10T14:10:04;13.80;99.90
27779;DHT22;30234;48.090;11.464;2023-05-10T14:14:05;13.70;99.90
27779;DHT22;30234;48.090;11.464;2023-05-10T14:18:06;13.70;99.90
27779;DHT22;30234;48.090;11.464;2023-05-10T14:22:06;13.70;99.90
27779;DHT22;30234;48.090;11.464;2023-05-10T14:26:07;13.70;99.90
27779;DHT22;30234;48.090;11.464;2023-05-10T14:30:09;13.50;99.90
27779;DHT22;30234;48.090;11.464;2023-05-10T14:34:10;13.40;99.90
27779;DHT22;30234;48.090;11.464;2023-05-10T14:38:11;13.40;99.90
27779;DHT22;30234;48.090;11.464;2023-05-10T14:42:12;13.50;99.90
27779;DHT22;30234;48.090;11.464;2023-05-10T14:46:13;13.60;99.90
27779;DHT22;30234;48.090;11.464;2023-05-10T14:50:14;13.70;99.90
27779;DHT22;30234;48.090;11.464;2023-05-10T14:54:17;13.30;99.90
27779;DHT22;30234;48.090;11.464;2023-05-10T14:58:17;13.20;99.90
27779;DHT22;30234;48.090;11.464;2023-05-10T15:02:18;13.10;99.90
27779;DHT22;30234;48.090;11.464;2023-05-10T15:06:24;13.20;99.90
27779;DHT22;30234;48.090;11.464;2023-05-10T15:10:31;13.30;99.90
27779;DHT22;30234;48.090;11.464;2023-05-10T15:14:33;13.30;99.90
27779;DHT22;30234;48.090;11.464;2023-05-10T15:18:34;13.20;99.90
27779;DHT22;30234;48.090;11.464;2023-05-10T15:22:35;12.80;99.90
27779;DHT22;30234;48.090;11.464;2023-05-10T15:26:36;12.80;99.90
27779;DHT22;30234;48.090;11.464;2023-05-10T15:30:37;12.60;99.90
27779;DHT22;30234;48.090;11.464;2023-05-10T15:34:38;12.40;99.90
27779;DHT22;30234;48.090;11.464;2023-05-10T15:38:39;12.30;99.90
27779;DHT22;30234;48.090;11.464;2023-05-10T15:42:40;12.20;99.90
27779;DHT22;30234;48.090;11.464;2023-05-10T15:46:41;12.20;99.90
27779;DHT22;30234;48.090;11.464;2023-05-10T15:50:42;12.20;99.90
27779;DHT22;30234;48.090;11.464;2023-05-10T15:54:43;12.20;99.90
27779;DHT22;30234;48.090;11.464;2023-05-10T15:58:44;12.20;99.90
27779;DHT22;30234;48.090;11.464;2023-05-10T16:02:46;12.30;99.90
27779;DHT22;30234;48.090;11.464;2023-05-10T16:06:47;12.40;99.90
27779;DHT22;30234;48.090;11.464;2023-05-10T16:10:49;12.30;99.90
27779;DHT22;30234;48.090;11.464;2023-05-10T16:14:51;12.20;99.90
27779;DHT22;30234;48.090;11.464;2023-05-10T16:18:52;12.20;99.90
27779;DHT22;30234;48.090;11.464;2023-05-10T16:22:53;12.00;99.90
27779;DHT22;30234;48.090;11.464;2023-05-10T16:26:55;12.00;99.90
27779;DHT22;30234;48.090;11.464;2023-05-10T16:30:56;12.00;99.90
27779;DHT22;30234;48.090;11.464;2023-05-10T16:34:58;12.10;99.90
27779;DHT22;30234;48.090;11.464;2023-05-10T16:39:00;12.00;99.90
27779;DHT22;30234;48.090;11.464;2023-05-10T16:43:01;11.80;99.90
27779;DHT22;30234;48.090;11.464;2023-05-10T16:47:02;11.80;99.90
27779;DHT22;30234;48.090;11.464;2023-05-10T16:51:03;11.80;99.90
27779;DHT22;30234;48.090;11.464;2023-05-10T16:55:04;11.70;99.90
27779;DHT22;30234;48.090;11.464;2023-05-10T16:59:06;11.60;99.90
27779;DHT22;30234;48.090;11.464;2023-05-10T17:03:06;11.40;99.90
27779;DHT22;30234;48.090;11.464;2023-05-10T17:07:07;11.30;99.90
27779;DHT22;30234;48.090;11.464;2023-05-10T17:11:08;11.20;99.90
27779;DHT22;30234;48.090;11.464;2023-05-10T17:15:10;11.10;99.90
27779;DHT22;30234;48.090;11.464;2023-05-10T17:19:11;11.00;99.90
27779;DHT22;30234;48.090;11.464;2023-05-10T17:23:12;11.00;99.90
27779;DHT22;30234;48.090;11.464;2023-05-10T17:27:13;10.90;99.90
27779;DHT22;30234;48.090;11.464;2023-05-10T17:31:14;10.90;99.90
27779;DHT22;30234;48.090;11.464;2023-05-10T17:35:15;10.80;99.90
27779;DHT22;30234;48.090;11.464;2023-05-10T17:39:16;10.70;99.90
27779;DHT22;30234;48.090;11.464;2023-05-10T17:43:17;10.70;99.90
27779;DHT22;30234;48.090;11.464;2023-05-10T17:47:21;10.70;99.90
27779;DHT22;30234;48.090;11.464;2023-05-10T17:51:24;10.70;99.90
27779;DHT22;30234;48.090;11.464;2023-05-10T17:55:26;10.70;99.90
27779;DHT22;30234;48.090;11.464;2023-05-10T17:59:36;10.70;99.90
27779;DHT22;30234;48.090;11.464;2023-05-10T18:03:37;10.60;99.90
27779;DHT22;30234;48.090;11.464;2023-05-10T18:07:40;10.60;99.90
27779;DHT22;30234;48.090;11.464;2023-05-10T18:11:44;10.70;99.90
27779;DHT22;30234;48.090;11.464;2023-05-10T18:15:46;10.50;99.90
27779;DHT22;30234;48.090;11.464;2023-05-10T18:19:47;10.40;99.90
27779;DHT22;30234;48.090;11.464;2023-05-10T18:23:48;10.30;99.90
27779;DHT22;30234;48.090;11.464;2023-05-10T18:27:49;10.30;99.90
27779;DHT22;30234;48.090;11.464;2023-05-10T18:31:51;10.30;99.90
27779;DHT22;30234;48.090;11.464;2023-05-10T18:35:52;10.30;99.90
27779;DHT22;30234;48.090;11.464;2023-05-10T18:39:53;10.30;99.90
27779;DHT22;30234;48.090;11.464;2023-05-10T18:43:54;10.30;99.90
27779;DHT22;30234;48.090;11.464;2023-05-10T18:47:55;10.30;99.90
27779;DHT22;30234;48.090;11.464;2023-05-10T18:51:57;10.20;99.90
27779;DHT22;30234;48.090;11.464;2023-05-10T18:55:58;10.20;99.90
27779;DHT22;30234;48.090;11.464;2023-05-10T18:59:59;10.20;99.90
27779;DHT22;30234;48.090;11.464;2023-05-10T19:04:00;10.20;99.90
27779;DHT22;30234;48.090;11.464;2023-05-10T19:08:02;10.10;99.90
27779;DHT22;30234;48.090;11.464;2023-05-10T19:12:03;10.10;99.90
27779;DHT22;30234;48.090;11.464;2023-05-10T19:16:09;10.10;99.90
27779;DHT22;30234;48.090;11.464;2023-05-10T19:20:11;10.10;99.90
27779;DHT22;30234;48.090;11.464;2023-05-10T19:24:12;10.10;99.90
27779;DHT22;30234;48.090;11.464;2023-05-10T19:28:14;10.00;99.90
27779;DHT22;30234;48.090;11.464;2023-05-10T19:32:15;10.00;99.90
27779;DHT22;30234;48.090;11.464;2023-05-10T19:36:16;10.00;99.90
27779;DHT22;30234;48.090;11.464;2023-05-10T19:40:17;10.00;99.90
27779;DHT22;30234;48.090;11.464;2023-05-10T19:44:19;9.90;99.90
27779;DHT22;30234;48.090;11.464;2023-05-10T19:48:20;9.90;99.90
27779;DHT22;30234;48.090;11.464;2023-05-10T19:52:21;9.90;99.90
27779;DHT22;30234;48.090;11.464;2023-05-10T19:56:23;10.00;99.90
27779;DHT22;30234;48.090;11.464;2023-05-10T20:00:24;9.90;99.90
27779;DHT22;30234;48.090;11.464;2023-05-10T20:04:29;10.00;99.90
27779;DHT22;30234;48.090;11.464;2023-05-10T20:08:30;10.00;99.90
27779;DHT22;30234;48.090;11.464;2023-05-10T20:12:31;9.90;99.90
27779;DHT22;30234;48.090;11.464;2023-05-10T20:16:32;9.90;99.90
27779;DHT22;30234;48.090;11.464;2023-05-10T20:20:33;9.90;99.90
27779;DHT22;30234;48.090;11.464;2023-05-10T20:24:35;9.90;99.90
27779;DHT22;30234;48.090;11.464;2023-05-10T20:28:36;9.90;99.90
27779;DHT22;30234;48.090;11.464;2023-05-10T20:32:38;9.70;99.90
27779;DHT22;30234;48.090;11.464;2023-05-10T20:36:39;9.80;99.90
27779;DHT22;30234;48.090;11.464;2023-05-10T20:40:40;9.80;99.90
27779;DHT22;30234;48.090;11.464;2023-05-10T20:44:41;9.80;99.90
27779;DHT22;30234;48.090;11.464;2023-05-10T20:48:42;9.90;99.90
27779;DHT22;30234;48.090;11.464;2023-05-10T20:52:44;9.80;99.90
27779;DHT22;30234;48.090;11.464;2023-05-10T20:56:45;9.80;99.90
27779;DHT22;30234;48.090;11.464;2023-05-10T21:00:46;9.70;99.90
27779;DHT22;30234;48.090;11.464;2023-05-10T21:04:47;9.70;99.90
27779;DHT22;30234;48.090;11.464;2023-05-10T21:08:48;9.70;99.90
27779;DHT22;30234;48.090;11.464;2023-05-10T21:12:49;9.60;99.90
27779;DHT22;30234;48.090;11.464;2023-05-10T21:16:50;9.60;99.90
27779;DHT22;30234;48.090;11.464;2023-05-10T21:20:51;9.50;99.90
27779;DHT22;30234;48.090;11.464;2023-05-10T21:24:52;9.40;99.90
27779;DHT22;30234;48.090;11.464;2023-05-10T21:28:53;9.40;99.90
27779;DHT22;30234;48.090;11.464;2023-05-10T21:32:54;9.40;99.90
27779;DHT22;30234;48.090;11.464;2023-05-10T21:36:59;9.30;99.90
27779;DHT22;30234;48.090;11.464;2023-05-10T21:41:00;9.30;99.90
27779;DHT22;30234;48.090;11.464;2023-05-10T21:45:06;9.30;99.90
27779;DHT22;30234;48.090;11.464;2023-05-10T21:49:07;9.20;99.90
27779;DHT22;30234;48.090;11.464;2023-05-10T21:53:10;9.20;99.90
27779;DHT22;30234;48.090;11.464;2023-05-10T21:57:11;9.30;99.90
27779;DHT22;30234;48.090;11.464;2023-05-10T22:01:12;9.30;99.90
27779;DHT22;30234;48.090;11.464;2023-05-10T22:05:14;9.30;99.90
27779;DHT22;30234;48.090;11.464;2023-05-10T22:09:15;9.30;99.90
27779;DHT22;30234;48.090;11.464;2023-05-10T22:13:16;9.30;99.90
27779;DHT22;30234;48.090;11.464;2023-05-10T22:17:17;9.20;99.90
27779;DHT22;30234;48.090;11.464;2023-05-10T22:21:18;9.20;99.90
27779;DHT22;30234;48.090;11.464;2023-05-10T22:25:19;9.20;99.90
27779;DHT22;30234;48.090;11.464;2023-05-10T22:29:20;9.10;99.90
27779;DHT22;30234;48.090;11.464;2023-05-10T22:33:22;9.10;99.90
27779;DHT22;30234;48.090;11.464;2023-05-10T22:37:23;9.10;99.90
27779;DHT22;30234;48.090;11.464;2023-05-10T22:41:24;9.10;99.90
27779;DHT22;30234;48.090;11.464;2023-05-10T22:45:25;9.10;99.90
27779;DHT22;30234;48.090;11.464;2023-05-10T22:49:25;8.90;99.90
27779;DHT22;30234;48.090;11.464;2023-05-10T22:53:26;8.90;99.90
27779;DHT22;30234;48.090;11.464;2023-05-10T22:57:27;8.90;99.90
27779;DHT22;30234;48.090;11.464;2023-05-10T23:01:28;8.80;99.90
27779;DHT22;30234;48.090;11.464;2023-05-10T23:05:29;8.70;99.90
27779;DHT22;30234;48.090;11.464;2023-05-10T23:09:30;8.90;99.90
27779;DHT22;30234;48.090;11.464;2023-05-10T23:13:31;8.90;99.90
27779;DHT22;30234;48.090;11.464;2023-05-10T23:17:33;8.80;99.90
27779;DHT22;30234;48.090;11.464;2023-05-10T23:21:33;8.80;99.90
27779;DHT22;30234;48.090;11.464;2023-05-10T23:25:35;8.80;99.90
27779;DHT22;30234;48.090;11.464;2023-05-10T23:29:36;8.80;99.90
27779;DHT22;30234;48.090;11.464;2023-05-10T23:33:37;8.80;99.90
27779;DHT22;30234;48.090;11.464;2023-05-10T23:37:38;8.80;99.90
27779;DHT22;30234;48.090;11.464;2023-05-10T23:41:40;8.80;99.90
27779;DHT22;30234;48.090;11.464;2023-05-10T23:45:42;8.80;99.90
27779;DHT22;30234;48.090;11.464;2023-05-10T23:49:43;8.80;99.90
27779;DHT22;30234;48.090;11.464;2023-05-10T23:53:44;8.80;99.90
27779;DHT22;30234;48.090;11.464;2023-05-10T23:57:45;8.80;99.90
